sensor_id;sensor_type;location;lat;lon;timestamp;P1;durP1;ratioP1;P2;durP2;ratioP2
20391;SDS011;10355;53.688;10.078;2023-11-21T00:02:30;10.95;;;5.78;;
20391;SDS011;10355;53.688;10.078;2023-11-21T00:05:14;9.48;;;5.50;;
20391;SDS011;10355;53.688;10.078;2023-11-21T00:07:57;7.63;;;5.10;;
20391;SDS011;10355;53.688;10.078;2023-11-21T00:10:40;12.85;;;5.85;;
20391;SDS011;10355;53.688;10.078;2023-11-21T00:13:23;11.23;;;5.82;;
20391;SDS011;10355;53.688;10.078;2023-11-21T00:16:06;11.07;;;5.55;;
20391;SDS011;10355;53.688;10.078;2023-11-21T00:18:49;9.18;;;5.15;;
20391;SDS011;10355;53.688;10.078;2023-11-21T00:21:34;9.40;;;5.60;;
20391;SDS011;10355;53.688;10.078;2023-11-21T00:24:16;12.90;;;6.32;;
20391;SDS011;10355;53.688;10.078;2023-11-21T00:26:59;11.23;;;5.53;;
20391;SDS011;10355;53.688;10.078;2023-11-21T00:29:42;10.00;;;5.95;;
20391;SDS011;10355;53.688;10.078;2023-11-21T00:32:26;9.38;;;5.30;;
20391;SDS011;10355;53.688;10.078;2023-11-21T00:35:09;9.52;;;5.60;;
20391;SDS011;10355;53.688;10.078;2023-11-21T00:37:53;10.02;;;6.00;;
20391;SDS011;10355;53.688;10.078;2023-11-21T00:40:36;11.73;;;6.10;;
20391;SDS011;10355;53.688;10.078;2023-11-21T00:43:19;11.48;;;6.43;;
20391;SDS011;10355;53.688;10.078;2023-11-21T00:46:03;12.73;;;6.18;;
20391;SDS011;10355;53.688;10.078;2023-11-21T00:48:46;10.50;;;5.70;;
20391;SDS011;10355;53.688;10.078;2023-11-21T00:51:31;14.90;;;5.80;;
20391;SDS011;10355;53.688;10.078;2023-11-21T00:54:15;10.57;;;5.88;;
20391;SDS011;10355;53.688;10.078;2023-11-21T00:56:59;9.40;;;5.38;;
20391;SDS011;10355;53.688;10.078;2023-11-21T00:59:42;8.88;;;4.57;;
20391;SDS011;10355;53.688;10.078;2023-11-21T01:02:24;8.18;;;4.68;;
20391;SDS011;10355;53.688;10.078;2023-11-21T01:05:08;10.82;;;5.60;;
20391;SDS011;10355;53.688;10.078;2023-11-21T01:07:50;10.57;;;5.05;;
20391;SDS011;10355;53.688;10.078;2023-11-21T01:10:34;8.02;;;4.85;;
20391;SDS011;10355;53.688;10.078;2023-11-21T01:13:17;12.57;;;4.97;;
20391;SDS011;10355;53.688;10.078;2023-11-21T01:16:00;13.43;;;6.18;;
20391;SDS011;10355;53.688;10.078;2023-11-21T01:18:42;9.45;;;4.68;;
20391;SDS011;10355;53.688;10.078;2023-11-21T01:21:26;6.90;;;4.40;;
20391;SDS011;10355;53.688;10.078;2023-11-21T01:24:09;8.10;;;4.75;;
20391;SDS011;10355;53.688;10.078;2023-11-21T01:26:53;7.40;;;4.40;;
20391;SDS011;10355;53.688;10.078;2023-11-21T01:29:36;10.43;;;4.93;;
20391;SDS011;10355;53.688;10.078;2023-11-21T01:32:19;7.15;;;4.50;;
20391;SDS011;10355;53.688;10.078;2023-11-21T01:35:02;7.90;;;4.40;;
20391;SDS011;10355;53.688;10.078;2023-11-21T01:37:47;8.00;;;4.05;;
20391;SDS011;10355;53.688;10.078;2023-11-21T01:40:30;7.22;;;4.30;;
20391;SDS011;10355;53.688;10.078;2023-11-21T01:43:14;7.88;;;4.50;;
20391;SDS011;10355;53.688;10.078;2023-11-21T01:45:58;7.47;;;3.90;;
20391;SDS011;10355;53.688;10.078;2023-11-21T01:48:41;6.15;;;3.58;;
20391;SDS011;10355;53.688;10.078;2023-11-21T01:51:24;5.53;;;3.25;;
20391;SDS011;10355;53.688;10.078;2023-11-21T01:54:09;5.95;;;3.70;;
20391;SDS011;10355;53.688;10.078;2023-11-21T01:56:58;5.40;;;3.10;;
20391;SDS011;10355;53.688;10.078;2023-11-21T01:59:45;5.25;;;3.10;;
20391;SDS011;10355;53.688;10.078;2023-11-21T02:02:31;5.05;;;3.10;;
20391;SDS011;10355;53.688;10.078;2023-11-21T02:05:15;5.35;;;3.30;;
20391;SDS011;10355;53.688;10.078;2023-11-21T02:07:59;5.60;;;3.15;;
20391;SDS011;10355;53.688;10.078;2023-11-21T02:10:42;7.32;;;3.03;;
20391;SDS011;10355;53.688;10.078;2023-11-21T02:13:25;5.85;;;2.95;;
20391;SDS011;10355;53.688;10.078;2023-11-21T02:16:09;4.78;;;2.70;;
20391;SDS011;10355;53.688;10.078;2023-11-21T02:18:54;5.95;;;2.85;;
20391;SDS011;10355;53.688;10.078;2023-11-21T02:21:37;5.72;;;2.97;;
20391;SDS011;10355;53.688;10.078;2023-11-21T02:24:23;4.55;;;2.67;;
20391;SDS011;10355;53.688;10.078;2023-11-21T02:27:06;4.85;;;2.78;;
20391;SDS011;10355;53.688;10.078;2023-11-21T02:29:49;4.45;;;2.78;;
20391;SDS011;10355;53.688;10.078;2023-11-21T02:32:32;5.18;;;2.60;;
20391;SDS011;10355;53.688;10.078;2023-11-21T02:35:28;4.32;;;2.85;;
20391;SDS011;10355;53.688;10.078;2023-11-21T02:38:13;4.85;;;2.90;;
20391;SDS011;10355;53.688;10.078;2023-11-21T02:40:58;4.32;;;2.58;;
20391;SDS011;10355;53.688;10.078;2023-11-21T02:43:41;4.30;;;2.70;;
20391;SDS011;10355;53.688;10.078;2023-11-21T02:46:24;4.25;;;2.63;;
20391;SDS011;10355;53.688;10.078;2023-11-21T02:49:07;4.30;;;2.78;;
20391;SDS011;10355;53.688;10.078;2023-11-21T02:51:51;5.43;;;2.88;;
20391;SDS011;10355;53.688;10.078;2023-11-21T02:54:35;5.40;;;3.15;;
20391;SDS011;10355;53.688;10.078;2023-11-21T02:57:19;5.18;;;3.15;;
20391;SDS011;10355;53.688;10.078;2023-11-21T03:00:02;4.68;;;3.03;;
20391;SDS011;10355;53.688;10.078;2023-11-21T03:02:48;6.05;;;3.35;;
20391;SDS011;10355;53.688;10.078;2023-11-21T03:05:31;5.57;;;3.30;;
20391;SDS011;10355;53.688;10.078;2023-11-21T03:08:16;5.25;;;3.20;;
20391;SDS011;10355;53.688;10.078;2023-11-21T03:10:59;6.50;;;3.30;;
20391;SDS011;10355;53.688;10.078;2023-11-21T03:13:43;5.40;;;3.22;;
20391;SDS011;10355;53.688;10.078;2023-11-21T03:16:26;6.15;;;3.40;;
20391;SDS011;10355;53.688;10.078;2023-11-21T03:19:09;5.65;;;3.53;;
20391;SDS011;10355;53.688;10.078;2023-11-21T03:21:52;6.13;;;3.65;;
20391;SDS011;10355;53.688;10.078;2023-11-21T03:24:34;7.05;;;3.47;;
20391;SDS011;10355;53.688;10.078;2023-11-21T03:27:17;5.18;;;3.22;;
20391;SDS011;10355;53.688;10.078;2023-11-21T03:30:01;5.68;;;3.50;;
20391;SDS011;10355;53.688;10.078;2023-11-21T03:32:45;6.28;;;3.80;;
20391;SDS011;10355;53.688;10.078;2023-11-21T03:35:28;7.38;;;3.63;;
20391;SDS011;10355;53.688;10.078;2023-11-21T03:38:11;5.80;;;3.65;;
20391;SDS011;10355;53.688;10.078;2023-11-21T03:40:56;6.88;;;3.22;;
20391;SDS011;10355;53.688;10.078;2023-11-21T03:43:38;7.13;;;3.88;;
20391;SDS011;10355;53.688;10.078;2023-11-21T03:46:23;7.07;;;3.70;;
20391;SDS011;10355;53.688;10.078;2023-11-21T03:49:06;8.02;;;3.88;;
20391;SDS011;10355;53.688;10.078;2023-11-21T03:51:48;8.38;;;4.35;;
20391;SDS011;10355;53.688;10.078;2023-11-21T03:54:31;5.97;;;3.80;;
20391;SDS011;10355;53.688;10.078;2023-11-21T03:57:14;6.05;;;3.92;;
20391;SDS011;10355;53.688;10.078;2023-11-21T03:59:57;7.28;;;3.42;;
20391;SDS011;10355;53.688;10.078;2023-11-21T04:02:41;5.90;;;3.63;;
20391;SDS011;10355;53.688;10.078;2023-11-21T04:05:24;5.03;;;3.28;;
20391;SDS011;10355;53.688;10.078;2023-11-21T04:08:06;5.32;;;3.63;;
20391;SDS011;10355;53.688;10.078;2023-11-21T04:10:49;6.47;;;3.65;;
20391;SDS011;10355;53.688;10.078;2023-11-21T04:13:32;5.35;;;3.47;;
20391;SDS011;10355;53.688;10.078;2023-11-21T04:16:15;5.32;;;3.22;;
20391;SDS011;10355;53.688;10.078;2023-11-21T04:18:59;6.40;;;3.35;;
20391;SDS011;10355;53.688;10.078;2023-11-21T04:21:42;4.70;;;3.15;;
20391;SDS011;10355;53.688;10.078;2023-11-21T04:24:25;4.72;;;3.15;;
20391;SDS011;10355;53.688;10.078;2023-11-21T04:27:07;5.72;;;3.05;;
20391;SDS011;10355;53.688;10.078;2023-11-21T04:29:50;6.97;;;3.28;;
20391;SDS011;10355;53.688;10.078;2023-11-21T04:32:33;5.78;;;3.22;;
20391;SDS011;10355;53.688;10.078;2023-11-21T04:35:17;4.53;;;2.85;;
20391;SDS011;10355;53.688;10.078;2023-11-21T04:38:00;5.03;;;3.17;;
20391;SDS011;10355;53.688;10.078;2023-11-21T04:40:44;5.40;;;3.03;;
20391;SDS011;10355;53.688;10.078;2023-11-21T04:43:27;4.30;;;3.13;;
20391;SDS011;10355;53.688;10.078;2023-11-21T04:46:09;4.88;;;2.92;;
20391;SDS011;10355;53.688;10.078;2023-11-21T04:48:52;6.00;;;3.42;;
20391;SDS011;10355;53.688;10.078;2023-11-21T04:51:36;6.28;;;3.20;;
20391;SDS011;10355;53.688;10.078;2023-11-21T04:54:19;6.25;;;3.03;;
20391;SDS011;10355;53.688;10.078;2023-11-21T04:57:05;5.47;;;2.95;;
20391;SDS011;10355;53.688;10.078;2023-11-21T04:59:48;6.82;;;3.38;;
20391;SDS011;10355;53.688;10.078;2023-11-21T05:02:31;7.53;;;3.65;;
20391;SDS011;10355;53.688;10.078;2023-11-21T05:05:17;5.07;;;3.60;;
20391;SDS011;10355;53.688;10.078;2023-11-21T05:08:01;5.88;;;3.33;;
20391;SDS011;10355;53.688;10.078;2023-11-21T05:10:44;6.22;;;3.22;;
20391;SDS011;10355;53.688;10.078;2023-11-21T05:13:27;5.88;;;3.50;;
20391;SDS011;10355;53.688;10.078;2023-11-21T05:16:10;4.97;;;3.20;;
20391;SDS011;10355;53.688;10.078;2023-11-21T05:18:54;4.63;;;3.05;;
20391;SDS011;10355;53.688;10.078;2023-11-21T05:21:41;4.93;;;3.13;;
20391;SDS011;10355;53.688;10.078;2023-11-21T05:24:25;5.85;;;3.60;;
20391;SDS011;10355;53.688;10.078;2023-11-21T05:27:08;6.68;;;3.42;;
20391;SDS011;10355;53.688;10.078;2023-11-21T05:29:52;4.78;;;3.47;;
20391;SDS011;10355;53.688;10.078;2023-11-21T05:32:35;6.15;;;3.65;;
20391;SDS011;10355;53.688;10.078;2023-11-21T05:35:18;5.32;;;3.35;;
20391;SDS011;10355;53.688;10.078;2023-11-21T05:38:00;6.63;;;3.47;;
20391;SDS011;10355;53.688;10.078;2023-11-21T05:40:44;8.38;;;3.70;;
20391;SDS011;10355;53.688;10.078;2023-11-21T05:43:27;7.78;;;3.40;;
20391;SDS011;10355;53.688;10.078;2023-11-21T05:46:11;5.47;;;3.58;;
20391;SDS011;10355;53.688;10.078;2023-11-21T05:48:55;5.57;;;3.40;;
20391;SDS011;10355;53.688;10.078;2023-11-21T05:51:38;5.43;;;3.03;;
20391;SDS011;10355;53.688;10.078;2023-11-21T05:54:20;7.38;;;3.38;;
20391;SDS011;10355;53.688;10.078;2023-11-21T05:57:05;4.60;;;3.13;;
20391;SDS011;10355;53.688;10.078;2023-11-21T05:59:48;4.90;;;3.15;;
20391;SDS011;10355;53.688;10.078;2023-11-21T06:02:32;4.40;;;3.20;;
20391;SDS011;10355;53.688;10.078;2023-11-21T06:05:15;5.50;;;3.20;;
20391;SDS011;10355;53.688;10.078;2023-11-21T06:07:59;4.32;;;3.05;;
20391;SDS011;10355;53.688;10.078;2023-11-21T06:10:42;5.28;;;3.25;;
20391;SDS011;10355;53.688;10.078;2023-11-21T06:13:26;5.03;;;3.17;;
20391;SDS011;10355;53.688;10.078;2023-11-21T06:16:09;4.38;;;2.80;;
20391;SDS011;10355;53.688;10.078;2023-11-21T06:18:54;4.25;;;3.05;;
20391;SDS011;10355;53.688;10.078;2023-11-21T06:21:37;5.10;;;3.30;;
20391;SDS011;10355;53.688;10.078;2023-11-21T06:24:20;4.20;;;2.97;;
20391;SDS011;10355;53.688;10.078;2023-11-21T06:27:03;5.57;;;2.97;;
20391;SDS011;10355;53.688;10.078;2023-11-21T06:29:47;4.72;;;2.83;;
20391;SDS011;10355;53.688;10.078;2023-11-21T06:32:30;6.20;;;3.45;;
20391;SDS011;10355;53.688;10.078;2023-11-21T06:35:13;5.00;;;2.95;;
20391;SDS011;10355;53.688;10.078;2023-11-21T06:37:57;5.50;;;3.08;;
20391;SDS011;10355;53.688;10.078;2023-11-21T06:40:40;3.53;;;2.65;;
20391;SDS011;10355;53.688;10.078;2023-11-21T06:43:23;4.10;;;2.80;;
20391;SDS011;10355;53.688;10.078;2023-11-21T06:46:07;4.45;;;3.03;;
20391;SDS011;10355;53.688;10.078;2023-11-21T06:48:50;5.72;;;3.22;;
20391;SDS011;10355;53.688;10.078;2023-11-21T06:51:33;5.00;;;3.08;;
20391;SDS011;10355;53.688;10.078;2023-11-21T06:54:15;4.10;;;2.88;;
20391;SDS011;10355;53.688;10.078;2023-11-21T06:56:58;5.13;;;2.75;;
20391;SDS011;10355;53.688;10.078;2023-11-21T06:59:41;3.35;;;2.40;;
20391;SDS011;10355;53.688;10.078;2023-11-21T07:02:25;3.53;;;2.60;;
20391;SDS011;10355;53.688;10.078;2023-11-21T07:05:08;4.38;;;2.58;;
20391;SDS011;10355;53.688;10.078;2023-11-21T07:07:51;3.33;;;2.67;;
20391;SDS011;10355;53.688;10.078;2023-11-21T07:10:35;3.42;;;2.58;;
20391;SDS011;10355;53.688;10.078;2023-11-21T07:13:19;4.63;;;2.75;;
20391;SDS011;10355;53.688;10.078;2023-11-21T07:16:03;4.70;;;2.65;;
20391;SDS011;10355;53.688;10.078;2023-11-21T07:18:47;3.28;;;2.25;;
20391;SDS011;10355;53.688;10.078;2023-11-21T07:21:30;4.53;;;2.42;;
20391;SDS011;10355;53.688;10.078;2023-11-21T07:24:13;3.30;;;2.15;;
20391;SDS011;10355;53.688;10.078;2023-11-21T07:26:56;4.00;;;2.47;;
20391;SDS011;10355;53.688;10.078;2023-11-21T07:29:40;2.55;;;2.05;;
20391;SDS011;10355;53.688;10.078;2023-11-21T07:32:22;3.88;;;2.60;;
20391;SDS011;10355;53.688;10.078;2023-11-21T07:35:07;5.78;;;2.78;;
20391;SDS011;10355;53.688;10.078;2023-11-21T07:37:50;4.72;;;2.70;;
20391;SDS011;10355;53.688;10.078;2023-11-21T07:40:33;4.25;;;2.70;;
20391;SDS011;10355;53.688;10.078;2023-11-21T07:43:16;3.97;;;2.40;;
20391;SDS011;10355;53.688;10.078;2023-11-21T07:46:01;4.30;;;2.70;;
20391;SDS011;10355;53.688;10.078;2023-11-21T07:48:44;4.32;;;2.95;;
20391;SDS011;10355;53.688;10.078;2023-11-21T07:51:28;6.72;;;2.90;;
20391;SDS011;10355;53.688;10.078;2023-11-21T07:54:11;4.13;;;2.70;;
20391;SDS011;10355;53.688;10.078;2023-11-21T07:56:54;4.50;;;2.72;;
20391;SDS011;10355;53.688;10.078;2023-11-21T07:59:37;5.05;;;3.25;;
20391;SDS011;10355;53.688;10.078;2023-11-21T08:02:20;4.13;;;2.60;;
20391;SDS011;10355;53.688;10.078;2023-11-21T08:05:03;5.30;;;2.63;;
20391;SDS011;10355;53.688;10.078;2023-11-21T08:07:47;4.03;;;2.70;;
20391;SDS011;10355;53.688;10.078;2023-11-21T08:10:30;5.43;;;2.92;;
20391;SDS011;10355;53.688;10.078;2023-11-21T08:13:13;3.75;;;2.60;;
20391;SDS011;10355;53.688;10.078;2023-11-21T08:15:57;3.22;;;2.10;;
20391;SDS011;10355;53.688;10.078;2023-11-21T08:18:44;5.60;;;2.72;;
20391;SDS011;10355;53.688;10.078;2023-11-21T08:21:27;3.20;;;2.30;;
20391;SDS011;10355;53.688;10.078;2023-11-21T08:24:12;4.85;;;2.42;;
20391;SDS011;10355;53.688;10.078;2023-11-21T08:26:55;2.72;;;2.20;;
20391;SDS011;10355;53.688;10.078;2023-11-21T08:29:38;7.72;;;2.40;;
20391;SDS011;10355;53.688;10.078;2023-11-21T08:32:20;4.10;;;2.20;;
20391;SDS011;10355;53.688;10.078;2023-11-21T08:35:03;3.53;;;2.10;;
20391;SDS011;10355;53.688;10.078;2023-11-21T08:37:47;3.30;;;2.00;;
20391;SDS011;10355;53.688;10.078;2023-11-21T08:40:31;3.42;;;1.85;;
20391;SDS011;10355;53.688;10.078;2023-11-21T08:43:14;2.22;;;1.60;;
20391;SDS011;10355;53.688;10.078;2023-11-21T08:45:57;1.85;;;1.35;;
20391;SDS011;10355;53.688;10.078;2023-11-21T08:48:40;1.67;;;1.13;;
20391;SDS011;10355;53.688;10.078;2023-11-21T08:51:25;2.70;;;1.40;;
20391;SDS011;10355;53.688;10.078;2023-11-21T08:54:08;2.95;;;1.40;;
20391;SDS011;10355;53.688;10.078;2023-11-21T08:56:52;1.90;;;1.35;;
20391;SDS011;10355;53.688;10.078;2023-11-21T08:59:36;2.78;;;1.10;;
20391;SDS011;10355;53.688;10.078;2023-11-21T09:02:19;2.25;;;1.10;;
20391;SDS011;10355;53.688;10.078;2023-11-21T09:05:02;2.75;;;1.15;;
20391;SDS011;10355;53.688;10.078;2023-11-21T09:07:45;2.90;;;1.40;;
20391;SDS011;10355;53.688;10.078;2023-11-21T09:10:30;2.78;;;1.30;;
20391;SDS011;10355;53.688;10.078;2023-11-21T09:13:15;2.42;;;1.23;;
20391;SDS011;10355;53.688;10.078;2023-11-21T09:15:58;3.72;;;1.23;;
20391;SDS011;10355;53.688;10.078;2023-11-21T09:18:41;2.55;;;1.30;;
20391;SDS011;10355;53.688;10.078;2023-11-21T09:21:24;3.38;;;1.50;;
20391;SDS011;10355;53.688;10.078;2023-11-21T09:24:07;2.10;;;1.40;;
20391;SDS011;10355;53.688;10.078;2023-11-21T09:26:51;2.88;;;1.30;;
20391;SDS011;10355;53.688;10.078;2023-11-21T09:29:35;3.55;;;1.58;;
20391;SDS011;10355;53.688;10.078;2023-11-21T09:32:18;2.88;;;1.70;;
20391;SDS011;10355;53.688;10.078;2023-11-21T09:35:03;2.80;;;1.65;;
20391;SDS011;10355;53.688;10.078;2023-11-21T09:37:46;3.60;;;1.73;;
20391;SDS011;10355;53.688;10.078;2023-11-21T09:40:31;2.00;;;1.48;;
20391;SDS011;10355;53.688;10.078;2023-11-21T09:43:15;3.55;;;1.58;;
20391;SDS011;10355;53.688;10.078;2023-11-21T09:46:01;4.38;;;1.80;;
20391;SDS011;10355;53.688;10.078;2023-11-21T09:48:45;1.83;;;1.40;;
20391;SDS011;10355;53.688;10.078;2023-11-21T09:51:29;1.90;;;1.45;;
20391;SDS011;10355;53.688;10.078;2023-11-21T09:54:15;1.90;;;1.30;;
20391;SDS011;10355;53.688;10.078;2023-11-21T09:56:59;1.58;;;1.33;;
20391;SDS011;10355;53.688;10.078;2023-11-21T09:59:42;1.95;;;1.20;;
20391;SDS011;10355;53.688;10.078;2023-11-21T10:02:27;1.85;;;1.20;;
20391;SDS011;10355;53.688;10.078;2023-11-21T10:05:12;1.25;;;1.15;;
20391;SDS011;10355;53.688;10.078;2023-11-21T10:07:56;1.55;;;1.13;;
20391;SDS011;10355;53.688;10.078;2023-11-21T10:10:42;3.58;;;1.80;;
20391;SDS011;10355;53.688;10.078;2023-11-21T10:13:26;3.25;;;1.50;;
20391;SDS011;10355;53.688;10.078;2023-11-21T10:16:12;1.88;;;1.20;;
20391;SDS011;10355;53.688;10.078;2023-11-21T10:18:59;1.52;;;1.20;;
20391;SDS011;10355;53.688;10.078;2023-11-21T10:21:51;1.48;;;1.17;;
20391;SDS011;10355;53.688;10.078;2023-11-21T10:24:36;1.48;;;1.20;;
20391;SDS011;10355;53.688;10.078;2023-11-21T10:27:32;2.25;;;1.30;;
20391;SDS011;10355;53.688;10.078;2023-11-21T10:30:15;2.13;;;1.33;;
20391;SDS011;10355;53.688;10.078;2023-11-21T10:32:59;1.67;;;1.15;;
20391;SDS011;10355;53.688;10.078;2023-11-21T10:35:46;2.83;;;1.15;;
20391;SDS011;10355;53.688;10.078;2023-11-21T10:38:33;1.98;;;1.40;;
20391;SDS011;10355;53.688;10.078;2023-11-21T10:41:18;1.58;;;0.98;;
20391;SDS011;10355;53.688;10.078;2023-11-21T10:44:01;2.25;;;1.38;;
20391;SDS011;10355;53.688;10.078;2023-11-21T10:46:46;2.20;;;1.35;;
20391;SDS011;10355;53.688;10.078;2023-11-21T10:49:32;2.75;;;1.40;;
20391;SDS011;10355;53.688;10.078;2023-11-21T10:52:16;1.83;;;1.27;;
20391;SDS011;10355;53.688;10.078;2023-11-21T10:55:01;2.70;;;1.20;;
20391;SDS011;10355;53.688;10.078;2023-11-21T10:57:45;2.63;;;1.30;;
20391;SDS011;10355;53.688;10.078;2023-11-21T11:00:30;3.17;;;1.10;;
20391;SDS011;10355;53.688;10.078;2023-11-21T11:03:14;1.65;;;1.15;;
20391;SDS011;10355;53.688;10.078;2023-11-21T11:05:58;2.00;;;1.27;;
20391;SDS011;10355;53.688;10.078;2023-11-21T11:08:42;3.40;;;1.33;;
20391;SDS011;10355;53.688;10.078;2023-11-21T11:11:27;1.85;;;1.40;;
20391;SDS011;10355;53.688;10.078;2023-11-21T11:14:10;1.83;;;1.20;;
20391;SDS011;10355;53.688;10.078;2023-11-21T11:16:54;2.22;;;1.30;;
20391;SDS011;10355;53.688;10.078;2023-11-21T11:19:37;2.78;;;1.30;;
20391;SDS011;10355;53.688;10.078;2023-11-21T11:22:24;1.65;;;1.13;;
20391;SDS011;10355;53.688;10.078;2023-11-21T11:25:21;1.85;;;1.30;;
20391;SDS011;10355;53.688;10.078;2023-11-21T11:28:08;1.85;;;1.30;;
20391;SDS011;10355;53.688;10.078;2023-11-21T11:30:56;2.28;;;1.30;;
20391;SDS011;10355;53.688;10.078;2023-11-21T11:33:43;3.80;;;1.70;;
20391;SDS011;10355;53.688;10.078;2023-11-21T11:36:28;2.88;;;1.33;;
20391;SDS011;10355;53.688;10.078;2023-11-21T11:39:29;1.92;;;1.23;;
20391;SDS011;10355;53.688;10.078;2023-11-21T11:42:14;1.55;;;1.27;;
20391;SDS011;10355;53.688;10.078;2023-11-21T11:44:57;1.95;;;1.25;;
20391;SDS011;10355;53.688;10.078;2023-11-21T11:47:40;1.38;;;1.20;;
20391;SDS011;10355;53.688;10.078;2023-11-21T11:50:26;3.60;;;1.20;;
20391;SDS011;10355;53.688;10.078;2023-11-21T11:53:12;2.38;;;0.93;;
20391;SDS011;10355;53.688;10.078;2023-11-21T11:55:57;2.45;;;1.30;;
20391;SDS011;10355;53.688;10.078;2023-11-21T11:58:42;3.13;;;1.50;;
20391;SDS011;10355;53.688;10.078;2023-11-21T12:01:26;1.88;;;1.50;;
20391;SDS011;10355;53.688;10.078;2023-11-21T12:07:16;2.05;;;1.45;;
20391;SDS011;10355;53.688;10.078;2023-11-21T12:09:59;3.20;;;1.45;;
20391;SDS011;10355;53.688;10.078;2023-11-21T12:12:42;1.98;;;1.30;;
20391;SDS011;10355;53.688;10.078;2023-11-21T12:15:27;3.33;;;1.58;;
20391;SDS011;10355;53.688;10.078;2023-11-21T12:18:11;2.28;;;1.50;;
20391;SDS011;10355;53.688;10.078;2023-11-21T12:20:54;1.42;;;1.15;;
20391;SDS011;10355;53.688;10.078;2023-11-21T12:23:37;1.85;;;1.30;;
20391;SDS011;10355;53.688;10.078;2023-11-21T12:26:22;1.70;;;1.25;;
20391;SDS011;10355;53.688;10.078;2023-11-21T12:29:05;2.05;;;1.30;;
20391;SDS011;10355;53.688;10.078;2023-11-21T12:31:50;2.10;;;1.30;;
20391;SDS011;10355;53.688;10.078;2023-11-21T12:34:33;1.60;;;1.20;;
20391;SDS011;10355;53.688;10.078;2023-11-21T12:37:16;1.70;;;1.40;;
20391;SDS011;10355;53.688;10.078;2023-11-21T12:39:59;3.67;;;1.50;;
20391;SDS011;10355;53.688;10.078;2023-11-21T12:42:42;2.10;;;1.40;;
20391;SDS011;10355;53.688;10.078;2023-11-21T12:45:25;2.42;;;1.30;;
20391;SDS011;10355;53.688;10.078;2023-11-21T12:48:10;2.10;;;1.20;;
20391;SDS011;10355;53.688;10.078;2023-11-21T12:50:54;2.33;;;1.20;;
20391;SDS011;10355;53.688;10.078;2023-11-21T12:53:37;1.90;;;1.20;;
20391;SDS011;10355;53.688;10.078;2023-11-21T12:56:21;2.40;;;1.40;;
20391;SDS011;10355;53.688;10.078;2023-11-21T12:59:04;1.30;;;1.20;;
20391;SDS011;10355;53.688;10.078;2023-11-21T13:01:47;1.38;;;1.23;;
20391;SDS011;10355;53.688;10.078;2023-11-21T13:04:34;1.30;;;1.20;;
20391;SDS011;10355;53.688;10.078;2023-11-21T13:07:17;1.27;;;1.10;;
20391;SDS011;10355;53.688;10.078;2023-11-21T13:10:01;2.45;;;1.20;;
20391;SDS011;10355;53.688;10.078;2023-11-21T13:12:49;1.63;;;1.13;;
20391;SDS011;10355;53.688;10.078;2023-11-21T13:15:33;1.30;;;1.00;;
20391;SDS011;10355;53.688;10.078;2023-11-21T13:18:18;2.70;;;1.20;;
20391;SDS011;10355;53.688;10.078;2023-11-21T13:21:05;1.75;;;1.05;;
20391;SDS011;10355;53.688;10.078;2023-11-21T13:23:51;1.55;;;1.10;;
20391;SDS011;10355;53.688;10.078;2023-11-21T13:26:35;2.13;;;1.20;;
20391;SDS011;10355;53.688;10.078;2023-11-21T13:29:18;1.92;;;1.13;;
20391;SDS011;10355;53.688;10.078;2023-11-21T13:32:02;3.40;;;1.20;;
20391;SDS011;10355;53.688;10.078;2023-11-21T13:34:47;1.55;;;1.10;;
20391;SDS011;10355;53.688;10.078;2023-11-21T13:37:35;1.98;;;1.23;;
20391;SDS011;10355;53.688;10.078;2023-11-21T13:40:20;2.60;;;1.40;;
20391;SDS011;10355;53.688;10.078;2023-11-21T13:43:04;2.45;;;1.30;;
20391;SDS011;10355;53.688;10.078;2023-11-21T13:45:47;3.00;;;1.30;;
20391;SDS011;10355;53.688;10.078;2023-11-21T13:48:33;2.10;;;1.20;;
20391;SDS011;10355;53.688;10.078;2023-11-21T13:51:23;1.73;;;1.05;;
20391;SDS011;10355;53.688;10.078;2023-11-21T13:54:17;1.98;;;1.40;;
20391;SDS011;10355;53.688;10.078;2023-11-21T13:57:01;2.45;;;1.35;;
20391;SDS011;10355;53.688;10.078;2023-11-21T13:59:45;2.95;;;1.33;;
20391;SDS011;10355;53.688;10.078;2023-11-21T14:02:28;2.42;;;1.35;;
20391;SDS011;10355;53.688;10.078;2023-11-21T14:05:16;2.28;;;1.30;;
20391;SDS011;10355;53.688;10.078;2023-11-21T14:08:10;1.48;;;1.10;;
20391;SDS011;10355;53.688;10.078;2023-11-21T14:10:57;1.98;;;1.10;;
20391;SDS011;10355;53.688;10.078;2023-11-21T14:13:41;1.40;;;1.00;;
20391;SDS011;10355;53.688;10.078;2023-11-21T14:16:28;1.83;;;1.10;;
20391;SDS011;10355;53.688;10.078;2023-11-21T14:19:10;1.90;;;1.02;;
20391;SDS011;10355;53.688;10.078;2023-11-21T14:21:57;1.52;;;1.00;;
20391;SDS011;10355;53.688;10.078;2023-11-21T14:24:41;1.95;;;1.10;;
20391;SDS011;10355;53.688;10.078;2023-11-21T14:27:29;2.75;;;1.25;;
20391;SDS011;10355;53.688;10.078;2023-11-21T14:30:15;1.90;;;1.00;;
20391;SDS011;10355;53.688;10.078;2023-11-21T14:33:00;1.60;;;1.20;;
20391;SDS011;10355;53.688;10.078;2023-11-21T14:35:43;1.83;;;1.55;;
20391;SDS011;10355;53.688;10.078;2023-11-21T14:38:26;3.97;;;2.10;;
20391;SDS011;10355;53.688;10.078;2023-11-21T14:41:10;1.88;;;1.20;;
20391;SDS011;10355;53.688;10.078;2023-11-21T14:43:55;2.42;;;1.50;;
20391;SDS011;10355;53.688;10.078;2023-11-21T14:46:38;2.60;;;1.38;;
20391;SDS011;10355;53.688;10.078;2023-11-21T14:49:25;1.98;;;1.23;;
20391;SDS011;10355;53.688;10.078;2023-11-21T14:52:15;4.18;;;1.30;;
20391;SDS011;10355;53.688;10.078;2023-11-21T14:55:13;1.83;;;1.10;;
20391;SDS011;10355;53.688;10.078;2023-11-21T14:58:02;1.63;;;0.88;;
20391;SDS011;10355;53.688;10.078;2023-11-21T15:00:47;1.77;;;1.00;;
20391;SDS011;10355;53.688;10.078;2023-11-21T15:03:30;2.00;;;1.23;;
20391;SDS011;10355;53.688;10.078;2023-11-21T15:06:31;1.45;;;0.90;;
20391;SDS011;10355;53.688;10.078;2023-11-21T15:09:13;1.98;;;1.20;;
20391;SDS011;10355;53.688;10.078;2023-11-21T15:12:20;2.15;;;1.13;;
20391;SDS011;10355;53.688;10.078;2023-11-21T15:15:08;1.60;;;1.15;;
20391;SDS011;10355;53.688;10.078;2023-11-21T15:17:53;1.42;;;1.10;;
20391;SDS011;10355;53.688;10.078;2023-11-21T15:20:36;1.50;;;1.27;;
20391;SDS011;10355;53.688;10.078;2023-11-21T15:23:19;2.05;;;1.30;;
20391;SDS011;10355;53.688;10.078;2023-11-21T15:26:02;1.40;;;1.23;;
20391;SDS011;10355;53.688;10.078;2023-11-21T15:28:46;1.80;;;1.40;;
20391;SDS011;10355;53.688;10.078;2023-11-21T15:31:29;1.75;;;1.23;;
20391;SDS011;10355;53.688;10.078;2023-11-21T15:34:14;1.73;;;1.17;;
20391;SDS011;10355;53.688;10.078;2023-11-21T15:36:57;1.98;;;1.30;;
20391;SDS011;10355;53.688;10.078;2023-11-21T15:39:39;2.08;;;1.27;;
20391;SDS011;10355;53.688;10.078;2023-11-21T15:42:23;1.38;;;1.05;;
20391;SDS011;10355;53.688;10.078;2023-11-21T15:45:06;1.48;;;1.05;;
20391;SDS011;10355;53.688;10.078;2023-11-21T15:47:49;2.28;;;1.00;;
20391;SDS011;10355;53.688;10.078;2023-11-21T15:50:33;2.55;;;1.20;;
20391;SDS011;10355;53.688;10.078;2023-11-21T15:53:17;2.22;;;1.42;;
20391;SDS011;10355;53.688;10.078;2023-11-21T15:56:00;1.13;;;1.00;;
20391;SDS011;10355;53.688;10.078;2023-11-21T15:58:45;2.42;;;1.40;;
20391;SDS011;10355;53.688;10.078;2023-11-21T16:01:32;3.08;;;1.20;;
20391;SDS011;10355;53.688;10.078;2023-11-21T16:04:16;2.03;;;1.30;;
20391;SDS011;10355;53.688;10.078;2023-11-21T16:07:00;1.55;;;1.15;;
20391;SDS011;10355;53.688;10.078;2023-11-21T16:09:43;2.97;;;1.17;;
20391;SDS011;10355;53.688;10.078;2023-11-21T16:12:26;2.60;;;1.40;;
20391;SDS011;10355;53.688;10.078;2023-11-21T16:15:09;1.38;;;1.08;;
20391;SDS011;10355;53.688;10.078;2023-11-21T16:17:52;1.90;;;1.05;;